Time;durP1;ratioP1;P1;durP2;ratioP2;P2;SDS_P1;SDS_P2;PMS_P1;PMS_P2;Temp;Humidity;BMP_temperature;BMP_pressure;BME280_temperature;BME280_humidity;BME280_pressure;Samples;Min_cycle;Max_cycle;Signal;HPM_P1;HPM_P2
2023/05/05 00:01:26;;;;;;;7.37;4.93;;;;;;;12.00;85.96;97298.63;5028267;28;20215;-68
2023/05/05 00:03:55;;;;;;;6.90;4.80;;;;;;;12.37;84.90;97314.13;5026082;28;20283;-69
2023/05/05 00:06:22;;;;;;;6.33;5.17;;;;;;;12.39;84.99;97312.31;5025727;28;20236;-68
2023/05/05 00:08:49;;;;;;;6.27;4.80;;;;;;;12.19;85.88;97322.81;5026754;28;20214;-69
2023/05/05 00:11:16;;;;;;;8.13;4.70;;;;;;;12.30;85.88;97317.97;5024375;28;20222;-70
2023/05/05 00:13:43;;;;;;;6.00;4.10;;;;;;;12.35;85.45;97315.13;5027202;28;20674;-69
2023/05/05 00:16:10;;;;;;;4.30;3.63;;;;;;;12.20;85.52;97307.16;5024200;28;20280;-69
2023/05/05 00:18:37;;;;;;;4.73;3.63;;;;;;;12.53;84.00;97320.25;5026924;28;20242;-73
2023/05/05 00:21:04;;;;;;;5.30;4.20;;;;;;;12.49;84.16;97308.34;5025533;28;20195;-75
2023/05/05 00:23:31;;;;;;;4.10;3.40;;;;;;;12.43;84.01;97305.19;5026855;28;20607;-73
2023/05/05 00:25:58;;;;;;;5.53;4.47;;;;;;;12.47;84.19;97314.56;5024993;28;20195;-71
2023/05/05 00:28:26;;;;;;;4.27;3.60;;;;;;;12.40;84.34;97313.16;5024439;28;20759;-71
2023/05/05 00:30:53;;;;;;;4.40;3.70;;;;;;;12.51;83.83;97322.09;5026641;28;20221;-74
2023/05/05 00:33:20;;;;;;;4.17;3.60;;;;;;;12.38;84.40;97308.03;5025231;28;20211;-72
2023/05/05 00:35:47;;;;;;;5.27;3.87;;;;;;;12.42;84.44;97314.78;5027833;28;20585;-70
2023/05/05 00:38:15;;;;;;;4.30;3.53;;;;;;;12.48;83.29;97311.03;5029325;28;20624;-72
2023/05/05 00:40:42;;;;;;;3.53;3.23;;;;;;;12.51;83.39;97313.47;5030592;28;20590;-69
2023/05/05 00:43:09;;;;;;;5.47;3.93;;;;;;;12.43;83.26;97315.59;5029554;28;20200;-71
2023/05/05 00:45:37;;;;;;;4.57;3.87;;;;;;;12.49;83.57;97307.53;5028408;28;20219;-69
2023/05/05 00:48:05;;;;;;;4.93;3.60;;;;;;;12.45;83.37;97291.22;5030249;28;20187;-74
2023/05/05 00:50:33;;;;;;;4.23;3.77;;;;;;;12.45;83.44;97304.22;5046122;28;20227;-71
2023/05/05 00:53:02;;;;;;;4.67;3.90;;;;;;;12.57;83.54;97306.19;5050151;28;20570;-68
2023/05/05 00:55:30;;;;;;;4.70;4.23;;;;;;;12.55;83.09;97312.41;5048203;28;20198;-69
2023/05/05 00:57:58;;;;;;;4.83;3.63;;;;;;;12.47;84.16;97299.78;5049809;28;20197;-68
2023/05/05 01:00:26;;;;;;;5.40;4.10;;;;;;;12.57;84.14;97301.00;5049065;28;20192;-69
2023/05/05 01:02:54;;;;;;;5.37;4.23;;;;;;;12.49;84.46;97299.72;5031173;28;20541;-68
2023/05/05 01:05:25;;;;;;;4.90;3.77;;;;;;;12.44;84.77;97304.28;5049626;28;20202;-69
2023/05/05 01:08:13;;;;;;;4.23;3.77;;;;;;;12.55;83.37;97289.84;5046923;28;20221;-68
2023/05/05 01:10:42;;;;;;;4.13;3.73;;;;;;;12.70;83.15;97302.09;5049505;28;20610;-70
2023/05/05 01:13:25;;;;;;;6.87;4.73;;;;;;;12.85;82.58;97301.34;5049007;28;20651;-69
2023/05/05 01:16:24;;;;;;;4.20;3.30;;;;;;;12.77;82.32;97292.25;5047657;28;20177;-69
2023/05/05 01:19:26;;;;;;;4.97;4.00;;;;;;;12.53;82.73;97273.50;5049552;28;20249;-70
2023/05/05 01:21:58;;;;;;;4.90;3.53;;;;;;;12.69;82.58;97281.38;5047210;28;20187;-69
2023/05/05 01:24:42;;;;;;;4.10;3.43;;;;;;;12.69;83.22;97278.78;5047439;28;20674;-69
2023/05/05 01:27:48;;;;;;;4.50;3.30;;;;;;;12.70;83.43;97276.09;5049148;28;20727;-68
2023/05/05 01:30:18;;;;;;;4.97;3.90;;;;;;;12.89;82.40;97271.66;5046004;28;20201;-68
2023/05/05 01:32:54;;;;;;;4.17;3.47;;;;;;;12.99;82.13;97272.03;5049166;28;20202;-68
2023/05/05 01:35:44;;;;;;;4.87;3.10;;;;;;;13.13;81.37;97268.75;5049172;28;20279;-70
2023/05/05 01:38:15;;;;;;;4.87;3.73;;;;;;;13.13;80.78;97261.78;5046344;28;20199;-69
2023/05/05 01:40:47;;;;;;;4.83;3.27;;;;;;;13.22;80.83;97265.66;5047739;28;20199;-69
2023/05/05 01:43:18;;;;;;;4.00;3.33;;;;;;;13.30;80.15;97266.09;5046375;28;20663;-70
2023/05/05 01:45:47;;;;;;;4.20;3.80;;;;;;;13.40;79.96;97259.47;5048686;28;20546;-69
2023/05/05 01:48:18;;;;;;;5.07;3.83;;;;;;;13.28;79.89;97263.59;5047361;28;20707;-69
2023/05/05 01:50:47;;;;;;;4.90;3.60;;;;;;;13.03;81.03;97245.78;5047357;28;20224;-68
2023/05/05 01:53:16;;;;;;;5.33;3.90;;;;;;;13.08;80.79;97246.41;5048782;28;20575;-68
2023/05/05 01:55:45;;;;;;;6.37;3.93;;;;;;;13.33;79.78;97242.53;5047221;28;20669;-69
2023/05/05 01:58:15;;;;;;;7.63;5.73;;;;;;;13.11;81.14;97242.00;5047436;28;20583;-70
2023/05/05 02:00:43;;;;;;;5.67;4.60;;;;;;;13.22;80.91;97244.84;5046505;28;20195;-69
2023/05/05 02:03:14;;;;;;;5.43;4.23;;;;;;;13.15;80.43;97231.31;5046786;28;20200;-70
2023/05/05 02:05:42;;;;;;;7.33;4.47;;;;;;;13.31;80.53;97242.63;5048657;28;20205;-69
2023/05/05 02:08:11;;;;;;;5.37;3.50;;;;;;;13.42;80.28;97239.41;5045784;28;20199;-68
2023/05/05 02:10:42;;;;;;;5.03;4.13;;;;;;;13.46;79.75;97238.34;5047209;28;20594;-68
2023/05/05 02:13:11;;;;;;;5.93;4.70;;;;;;;13.37;80.13;97241.44;5047116;28;20191;-68
2023/05/05 02:15:40;;;;;;;11.10;4.70;;;;;;;13.23;80.64;97223.16;5046986;28;20321;-67
2023/05/05 02:18:09;;;;;;;9.50;6.20;;;;;;;13.26;80.17;97241.16;5047764;28;20232;-68
2023/05/05 02:20:37;;;;;;;9.53;6.03;;;;;;;13.01;82.18;97245.03;5046438;28;20631;-67
2023/05/05 02:23:06;;;;;;;7.70;4.97;;;;;;;12.93;82.61;97244.59;5048474;28;20689;-69
2023/05/05 02:25:44;;;;;;;7.87;5.50;;;;;;;12.57;84.18;97241.25;5046905;28;20412;-67
2023/05/05 02:28:20;;;;;;;8.00;5.90;;;;;;;12.83;83.03;97248.59;5046741;28;20587;-69
2023/05/05 02:30:56;;;;;;;7.00;6.00;;;;;;;12.68;84.21;97245.91;5045931;28;20229;-70
2023/05/05 02:33:30;;;;;;;7.60;5.83;;;;;;;12.37;85.44;97233.63;5047565;28;20608;-70
2023/05/05 02:36:06;;;;;;;8.03;6.27;;;;;;;12.34;85.04;97236.41;5046726;28;20206;-70
2023/05/05 02:38:37;;;;;;;5.97;4.97;;;;;;;12.27;86.50;97242.78;5045455;28;20252;-69
2023/05/05 02:41:10;;;;;;;7.43;5.10;;;;;;;12.10;87.31;97248.81;5048219;28;20684;-70
2023/05/05 02:43:41;;;;;;;8.90;5.33;;;;;;;12.28;86.29;97241.88;5045425;28;20222;-69
2023/05/05 02:46:09;;;;;;;6.23;4.97;;;;;;;12.12;87.19;97252.16;5046612;28;20229;-72
2023/05/05 02:48:39;;;;;;;8.43;5.70;;;;;;;11.91;87.34;97245.41;5046414;28;20190;-72
2023/05/05 02:51:06;;;;;;;7.70;5.20;;;;;;;12.05;87.50;97231.78;5046541;28;20230;-73
2023/05/05 02:53:36;;;;;;;7.13;5.30;;;;;;;12.05;86.84;97244.75;5046504;28;20268;-70
2023/05/05 02:56:18;;;;;;;6.87;4.77;;;;;;;12.15;87.41;97256.38;5028236;28;20195;-70
2023/05/05 02:59:02;;;;;;;7.60;5.30;;;;;;;11.92;87.48;97254.03;5045972;28;20599;-71
2023/05/05 03:01:45;;;;;;;6.73;4.90;;;;;;;11.98;86.92;97264.13;5047180;28;20221;-70
2023/05/05 03:04:37;;;;;;;6.47;4.80;;;;;;;12.19;86.58;97261.34;5028487;28;20261;-71
2023/05/05 03:07:11;;;;;;;5.70;4.80;;;;;;;12.24;85.46;97255.94;5046412;28;20189;-71
2023/05/05 03:09:54;;;;;;;6.33;4.67;;;;;;;12.41;84.25;97253.34;5044992;28;20280;-70
2023/05/05 03:12:30;;;;;;;7.90;5.00;;;;;;;12.51;84.27;97259.75;5045473;28;20242;-69
2023/05/05 03:15:12;;;;;;;4.37;3.97;;;;;;;12.64;82.67;97257.38;5046246;28;20191;-69
2023/05/05 03:17:41;;;;;;;5.10;4.30;;;;;;;12.69;83.06;97258.84;5045994;28;20200;-69
2023/05/05 03:20:11;;;;;;;7.03;5.23;;;;;;;12.55;83.61;97256.09;5045964;28;20685;-69
2023/05/05 03:22:41;;;;;;;6.20;5.10;;;;;;;12.56;83.14;97255.19;5044794;28;20190;-71
2023/05/05 03:25:11;;;;;;;5.50;4.40;;;;;;;12.59;83.34;97251.59;5029517;28;20330;-69
2023/05/05 03:27:39;;;;;;;6.20;4.37;;;;;;;12.61;82.44;97234.97;5045588;28;20253;-69
2023/05/05 03:30:08;;;;;;;6.93;5.37;;;;;;;12.86;82.61;97255.38;5044379;28;20200;-69
2023/05/05 03:32:41;;;;;;;8.60;4.87;;;;;;;13.02;81.44;97253.69;5045865;28;20237;-68
2023/05/05 03:35:08;;;;;;;10.37;4.57;;;;;;;13.13;80.93;97259.19;5045755;28;20221;-70
2023/05/05 03:37:35;;;;;;;6.43;4.40;;;;;;;13.19;81.00;97258.03;5045848;28;20233;-70
2023/05/05 03:40:02;;;;;;;9.23;5.50;;;;;;;13.14;80.84;97260.88;5046502;28;20512;-69
2023/05/05 03:42:30;;;;;;;7.50;5.17;;;;;;;13.25;80.76;97268.13;5045222;28;20215;-69
2023/05/05 03:44:57;;;;;;;6.30;5.00;;;;;;;12.90;81.93;97268.13;5046959;28;20209;-70
2023/05/05 03:47:25;;;;;;;6.63;4.70;;;;;;;13.11;81.38;97255.00;5044590;28;20195;-70
2023/05/05 03:49:53;;;;;;;9.13;5.57;;;;;;;13.22;80.86;97258.69;5045586;28;20231;-68
2023/05/05 03:52:20;;;;;;;10.10;5.73;;;;;;;13.31;80.39;97259.97;5044344;28;20237;-68
2023/05/05 03:54:47;;;;;;;7.70;5.67;;;;;;;13.31;79.98;97246.97;5029314;28;20196;-69
2023/05/05 03:57:15;;;;;;;9.00;5.57;;;;;;;13.46;79.10;97253.94;5027926;28;20192;-70
2023/05/05 03:59:42;;;;;;;15.17;9.37;;;;;;;13.73;78.20;97255.06;5046386;28;20192;-69
2023/05/05 04:02:08;;;;;;;18.07;7.13;;;;;;;14.12;77.42;97257.22;5046903;28;20192;-70
2023/05/05 04:04:35;;;;;;;13.07;6.03;;;;;;;14.37;75.46;97260.13;5045624;28;20201;-70
2023/05/05 04:07:02;;;;;;;10.67;5.53;;;;;;;14.49;74.00;97262.88;5046883;28;20186;-69
2023/05/05 04:09:29;;;;;;;4.47;3.43;;;;;;;14.47;72.43;97259.53;5044294;28;20195;-70
2023/05/05 04:11:56;;;;;;;4.13;2.60;;;;;;;14.53;70.54;97272.19;5050789;28;20217;-70
2023/05/05 04:14:23;;;;;;;2.47;2.27;;;;;;;14.57;70.27;97265.88;5049293;28;20190;-70
2023/05/05 04:16:51;;;;;;;3.20;2.67;;;;;;;14.62;69.52;97269.06;5049034;28;20282;-70
2023/05/05 04:19:19;;;;;;;3.80;2.57;;;;;;;14.55;70.16;97267.75;5048903;28;20264;-71
2023/05/05 04:21:46;;;;;;;3.27;2.17;;;;;;;14.87;68.90;97267.63;5047797;28;20319;-69
2023/05/05 04:24:13;;;;;;;4.73;3.03;;;;;;;15.13;67.53;97265.16;5050161;28;20652;-70
2023/05/05 04:26:41;;;;;;;3.40;2.70;;;;;;;15.35;67.50;97264.69;5048803;28;20189;-70
2023/05/05 04:29:08;;;;;;;4.93;2.50;;;;;;;15.61;65.90;97261.34;5050293;28;20186;-70
2023/05/05 04:31:35;;;;;;;3.40;2.43;;;;;;;15.43;65.67;97265.09;5047360;28;20235;-70
2023/05/05 04:34:02;;;;;;;5.27;4.03;;;;;;;15.46;68.40;97268.34;5048672;28;20205;-70
2023/05/05 04:36:31;;;;;;;8.20;4.30;;;;;;;14.89;70.16;97265.78;5048674;28;20252;-75
2023/05/05 04:38:58;;;;;;;6.90;3.60;;;;;;;15.26;69.08;97275.69;5047587;28;20579;-69
2023/05/05 04:41:26;;;;;;;4.83;3.97;;;;;;;15.48;69.03;97286.50;5032343;28;20312;-69
2023/05/05 04:43:55;;;;;;;8.57;4.30;;;;;;;15.58;68.95;97285.00;5047348;28;20194;-70
2023/05/05 04:46:26;;;;;;;7.10;4.03;;;;;;;15.83;67.94;97274.72;5048662;28;20182;-70
2023/05/05 04:48:53;;;;;;;9.60;5.40;;;;;;;16.35;66.55;97290.53;5048781;28;20192;-69
2023/05/05 04:51:21;;;;;;;6.07;4.40;;;;;;;16.45;65.27;97291.63;5049050;28;20289;-72
2023/05/05 04:53:48;;;;;;;10.20;4.00;;;;;;;17.12;63.20;97293.25;5049322;28;20646;-72
2023/05/05 04:56:14;;;;;;;6.03;3.80;;;;;;;17.07;62.97;97292.72;5030915;28;20191;-71
2023/05/05 04:58:41;;;;;;;11.27;5.40;;;;;;;17.45;61.94;97290.13;5048392;28;20243;-70
2023/05/05 05:01:08;;;;;;;3.07;2.63;;;;;;;17.41;58.93;97292.13;5046691;28;20570;-72
2023/05/05 05:03:35;;;;;;;3.70;2.83;;;;;;;17.29;58.90;97285.06;5049338;28;20736;-74
2023/05/05 05:06:02;;;;;;;2.70;2.30;;;;;;;17.22;59.15;97281.22;5047719;28;20740;-70
2023/05/05 05:08:29;;;;;;;3.67;2.40;;;;;;;17.39;59.21;97286.16;5048205;28;20206;-67
2023/05/05 05:10:58;;;;;;;5.07;2.50;;;;;;;17.29;59.64;97285.06;5047424;28;20667;-70
2023/05/05 05:13:25;;;;;;;4.47;2.53;;;;;;;17.35;59.41;97283.84;5060084;28;20253;-70
2023/05/05 05:15:53;;;;;;;4.33;2.10;;;;;;;17.44;58.12;97291.88;5067882;28;20197;-72
2023/05/05 05:18:20;;;;;;;3.43;2.97;;;;;;;17.40;58.16;97290.41;5065707;28;20187;-69
2023/05/05 05:20:48;;;;;;;2.77;2.43;;;;;;;17.38;58.70;97292.31;5099783;28;20683;-70
2023/05/05 05:23:15;;;;;;;3.47;3.07;;;;;;;17.48;58.54;97290.72;5066376;28;20194;-72
2023/05/05 05:25:43;;;;;;;4.17;3.00;;;;;;;17.62;58.19;97290.63;5067595;28;20271;-70
2023/05/05 05:28:12;;;;;;;3.50;2.57;;;;;;;17.92;57.74;97306.00;5050459;28;20231;-69
2023/05/05 05:30:47;;;;;;;3.03;2.50;;;;;;;18.13;56.55;97298.38;5066718;28;20299;-71
2023/05/05 05:33:14;;;;;;;3.97;2.37;;;;;;;18.30;55.51;97295.41;5067428;28;20218;-72
2023/05/05 05:35:42;;;;;;;2.20;2.00;;;;;;;17.57;55.38;97305.84;5049572;28;20255;-70
2023/05/05 05:38:09;;;;;;;2.00;1.80;;;;;;;17.03;57.46;97293.88;5080100;28;20209;-69
2023/05/05 05:40:36;;;;;;;2.23;1.83;;;;;;;17.28;57.01;97280.78;5047334;28;20195;-70
2023/05/05 05:43:05;;;;;;;3.00;2.37;;;;;;;17.56;57.14;97298.91;5048773;28;20814;-70
2023/05/05 05:45:33;;;;;;;2.53;2.17;;;;;;;17.72;57.09;97303.94;5059149;28;20236;-70
2023/05/05 05:48:02;;;;;;;2.53;2.30;;;;;;;17.93;56.57;97304.22;5044868;28;20215;-69
2023/05/05 05:50:29;;;;;;;1.53;1.43;;;;;;;17.64;55.50;97291.38;5051494;28;20295;-68
2023/05/05 05:52:57;;;;;;;5.20;2.87;;;;;;;17.62;57.65;97295.88;5045161;28;20273;-68
2023/05/05 05:55:25;;;;;;;4.57;2.63;;;;;;;17.60;57.36;97294.28;5046537;28;20279;-73
2023/05/05 05:57:53;;;;;;;4.63;3.00;;;;;;;17.83;56.94;97297.00;5044993;28;20270;-68
2023/05/05 06:00:20;;;;;;;5.67;2.17;;;;;;;17.80;56.16;97288.53;5046635;28;20665;-70
2023/05/05 06:02:53;;;;;;;2.63;2.00;;;;;;;18.10;55.70;97298.59;5045878;28;20282;-69
2023/05/05 06:05:24;;;;;;;3.20;2.00;;;;;;;17.93;56.40;97301.59;5043162;28;20187;-69
2023/05/05 06:07:52;;;;;;;3.77;1.97;;;;;;;17.47;57.47;97299.53;5046349;28;20189;-70
2023/05/05 06:10:21;;;;;;;2.20;2.00;;;;;;;17.54;57.39;97289.50;5028405;28;20801;-70
2023/05/05 06:13:00;;;;;;;2.90;1.87;;;;;;;17.31;56.75;97287.59;5046628;28;20210;-70
2023/05/05 06:15:32;;;;;;;4.63;2.30;;;;;;;17.08;56.91;97291.78;5045453;28;20225;-71
2023/05/05 06:18:00;;;;;;;3.07;1.80;;;;;;;17.19;57.58;97299.72;5046218;28;20622;-69
2023/05/05 06:20:28;;;;;;;2.33;2.10;;;;;;;17.34;56.21;97300.47;5046521;28;20574;-68
2023/05/05 06:22:55;;;;;;;3.43;2.20;;;;;;;17.46;56.83;97308.31;5046626;28;20607;-69
2023/05/05 06:25:23;;;;;;;2.47;1.90;;;;;;;17.72;55.97;97293.47;5030145;28;20189;-69
2023/05/05 06:27:52;;;;;;;2.20;2.03;;;;;;;18.02;56.12;97298.31;5028128;28;20247;-69
2023/05/05 06:30:19;;;;;;;2.50;2.00;;;;;;;17.97;56.07;97321.41;5059149;28;20725;-70
2023/05/05 06:32:46;;;;;;;7.13;3.77;;;;;;;17.68;56.89;97313.78;5065236;28;20575;-71
2023/05/05 06:35:13;;;;;;;4.27;2.10;;;;;;;18.14;54.85;97310.53;5066702;28;20276;-73
2023/05/05 06:37:41;;;;;;;4.10;1.90;;;;;;;18.10;55.15;97311.69;5066845;28;20734;-74
2023/05/05 06:40:09;;;;;;;2.27;1.70;;;;;;;17.85;54.89;97309.97;5047989;28;20288;-71
2023/05/05 06:42:36;;;;;;;4.27;2.97;;;;;;;17.41;56.40;97310.44;5067149;28;20189;-72
2023/05/05 06:45:08;;;;;;;2.40;1.80;;;;;;;17.42;56.93;97301.63;5050137;28;20195;-71
2023/05/05 06:47:36;;;;;;;2.70;2.27;;;;;;;17.59;55.07;97303.97;5030050;28;20284;-69
2023/05/05 06:50:04;;;;;;;2.60;1.90;;;;;;;17.65;55.47;97313.16;5026346;28;20273;-72
2023/05/05 06:52:41;;;;;;;3.20;1.70;;;;;;;17.40;55.93;97321.84;5027419;28;20226;-75
2023/05/05 06:55:16;;;;;;;2.10;1.60;;;;;;;17.45;55.71;97306.66;5027514;28;20191;-73
2023/05/05 06:57:47;;;;;;;5.70;3.17;;;;;;;18.00;55.12;97308.91;5024935;28;20646;-74
2023/05/05 07:00:17;;;;;;;2.77;1.70;;;;;;;18.18;53.68;97310.22;5026248;28;20193;-74
2023/05/05 07:02:49;;;;;;;2.97;1.77;;;;;;;18.11;53.98;97316.00;5044143;28;20197;-72
2023/05/05 07:05:18;;;;;;;2.60;2.10;;;;;;;18.50;53.47;97302.69;5046435;28;20306;-71
2023/05/05 07:07:53;;;;;;;2.10;1.87;;;;;;;18.25;53.37;97287.00;5043068;28;20187;-70
2023/05/05 07:10:23;;;;;;;2.83;2.20;;;;;;;18.37;53.60;97305.31;5047258;28;20234;-70
2023/05/05 07:12:51;;;;;;;2.47;2.03;;;;;;;18.16;54.23;97291.13;5037360;28;20283;-71
2023/05/05 07:15:18;;;;;;;3.13;2.20;;;;;;;18.36;54.39;97301.00;5045337;28;20619;-72
2023/05/05 07:17:57;;;;;;;3.30;2.30;;;;;;;18.47;53.11;97298.50;5046622;28;20197;-74
2023/05/05 07:20:25;;;;;;;3.07;1.77;;;;;;;18.64;52.35;97307.75;5044899;28;20582;-73
2023/05/05 07:22:52;;;;;;;2.70;2.23;;;;;;;18.93;51.62;97306.44;5045842;28;20708;-72
2023/05/05 07:25:20;;;;;;;2.87;2.10;;;;;;;18.87;52.54;97300.78;5043503;28;20220;-71
2023/05/05 07:27:47;;;;;;;2.20;1.73;;;;;;;19.06;52.29;97301.09;5045668;28;20266;-70
2023/05/05 07:30:14;;;;;;;14.17;8.33;;;;;;;19.39;52.01;97293.31;5044196;28;20291;-71
2023/05/05 07:32:44;;;;;;;3.27;2.20;;;;;;;19.28;51.45;97309.84;5041912;28;20822;-69
2023/05/05 07:35:12;;;;;;;4.30;2.10;;;;;;;19.05;52.24;97292.38;5046941;28;20199;-72
2023/05/05 07:37:39;;;;;;;1.67;1.57;;;;;;;18.83;51.96;97305.44;5043978;28;20206;-69
2023/05/05 07:40:06;;;;;;;1.63;1.50;;;;;;;18.59;52.16;97296.75;5046534;28;20270;-72
2023/05/05 07:42:34;;;;;;;2.73;1.90;;;;;;;18.30;52.39;97292.78;5043721;28;20200;-70
2023/05/05 07:45:02;;;;;;;1.87;1.57;;;;;;;18.02;52.96;97300.94;5049317;28;20187;-72
2023/05/05 07:47:29;;;;;;;2.13;1.73;;;;;;;17.96;52.71;97293.50;5047388;28;20194;-73
2023/05/05 07:49:57;;;;;;;1.93;1.60;;;;;;;17.99;52.87;97295.91;5049713;28;20188;-72
2023/05/05 07:52:25;;;;;;;3.30;2.10;;;;;;;18.09;53.40;97310.88;5050205;28;20221;-71
2023/05/05 07:55:10;;;;;;;4.57;1.93;;;;;;;18.11;53.28;97289.81;5048864;28;20186;-70
2023/05/05 07:57:40;;;;;;;3.23;1.70;;;;;;;17.85;53.29;97296.88;5032455;28;20708;-72
2023/05/05 08:00:12;;;;;;;1.70;1.60;;;;;;;17.51;53.56;97290.56;5048128;28;20717;-71
2023/05/05 08:02:40;;;;;;;2.33;1.43;;;;;;;17.98;53.71;97305.56;5048462;28;20280;-72
2023/05/05 08:05:07;;;;;;;3.33;2.03;;;;;;;17.98;53.35;97309.97;5049692;28;20563;-70
2023/05/05 08:07:39;;;;;;;3.13;1.90;;;;;;;18.25;52.78;97302.75;5048756;28;20186;-72
2023/05/05 08:10:09;;;;;;;2.03;1.67;;;;;;;17.88;53.71;97308.00;5050023;28;20192;-73
2023/05/05 08:12:36;;;;;;;1.93;1.70;;;;;;;18.03;52.75;97294.75;5048026;28;20219;-72
2023/05/05 08:15:04;;;;;;;2.97;1.80;;;;;;;17.98;52.56;97310.81;5049971;28;20226;-74
2023/05/05 08:17:45;;;;;;;2.53;2.10;;;;;;;18.17;52.41;97299.84;5047351;28;20588;-71
2023/05/05 08:20:12;;;;;;;2.23;1.90;;;;;;;18.21;51.45;97299.53;5048764;28;20201;-70
2023/05/05 08:22:41;;;;;;;2.50;1.90;;;;;;;18.13;51.77;97301.84;5050051;28;20260;-70
2023/05/05 08:25:09;;;;;;;2.37;1.60;;;;;;;18.23;52.99;97283.66;5047998;28;20187;-70
2023/05/05 08:27:38;;;;;;;2.40;1.93;;;;;;;18.77;51.64;97298.03;5049812;28;20318;-73
2023/05/05 08:30:06;;;;;;;9.37;1.90;;;;;;;18.96;51.04;97306.19;5048108;28;20199;-73
2023/05/05 08:32:34;;;;;;;6.10;2.00;;;;;;;18.75;51.40;97286.81;5048908;28;20246;-69
2023/05/05 08:35:05;;;;;;;2.53;2.03;;;;;;;18.94;50.52;97297.59;5047837;28;20263;-74
2023/05/05 08:38:12;;;;;;;1.97;1.70;;;;;;;18.98;51.18;97299.03;5047743;28;20267;-71
2023/05/05 08:41:30;;;;;;;2.60;1.77;;;;;;;19.28;50.10;97294.09;5038470;28;20208;-73
2023/05/05 08:43:57;;;;;;;3.47;2.00;;;;;;;19.35;50.30;97284.00;5047705;28;20222;-71
2023/05/05 08:46:26;;;;;;;2.30;1.60;;;;;;;18.90;50.98;97290.91;5041665;28;20205;-70
2023/05/05 08:48:54;;;;;;;2.17;1.50;;;;;;;18.95;50.85;97291.41;5048789;28;20196;-72
2023/05/05 08:51:26;;;;;;;3.80;2.33;;;;;;;19.27;50.67;97278.44;5047852;28;20187;-70
2023/05/05 08:53:53;;;;;;;2.83;1.83;;;;;;;19.22;50.04;97289.31;5047532;28;20808;-69
2023/05/05 08:56:21;;;;;;;2.27;1.50;;;;;;;19.02;48.88;97284.72;5045907;28;20553;-72
2023/05/05 08:58:50;;;;;;;1.60;1.50;;;;;;;18.94;49.48;97276.59;5044378;28;20196;-72
2023/05/05 09:01:19;;;;;;;2.63;1.90;;;;;;;19.12;49.59;97282.25;5029689;28;20300;-69
2023/05/05 09:03:47;;;;;;;3.63;1.70;;;;;;;19.13;51.27;97286.53;5059227;28;20187;-69
2023/05/05 09:06:14;;;;;;;2.40;2.03;;;;;;;19.11;50.92;97291.91;5028668;28;20217;-69
2023/05/05 09:08:41;;;;;;;4.97;3.07;;;;;;;19.34;50.86;97284.94;5026984;28;20767;-69
2023/05/05 09:11:08;;;;;;;4.17;2.63;;;;;;;19.60;49.62;97269.81;5028623;28;20189;-70
2023/05/05 09:13:35;;;;;;;5.00;2.53;;;;;;;19.97;49.33;97294.88;5026015;28;20233;-70
2023/05/05 09:16:02;;;;;;;7.53;2.87;;;;;;;20.06;49.53;97288.84;5028163;28;20555;-69
2023/05/05 09:18:30;;;;;;;3.40;2.37;;;;;;;20.09;49.06;97286.81;5019680;28;20288;-69
2023/05/05 09:20:58;;;;;;;3.50;2.10;;;;;;;19.96;49.76;97304.53;5045684;28;20210;-71
2023/05/05 09:23:25;;;;;;;5.90;2.90;;;;;;;19.93;49.70;97306.56;5046798;28;20688;-70
2023/05/05 09:26:07;;;;;;;5.03;3.53;;;;;;;19.81;50.00;97278.59;5046776;28;20681;-72
2023/05/05 09:28:36;;;;;;;3.43;2.30;;;;;;;19.75;50.83;97273.84;5046504;28;20233;-70
2023/05/05 09:31:14;;;;;;;5.03;3.40;;;;;;;19.67;51.63;97297.25;5046094;28;20194;-71
2023/05/05 09:33:42;;;;;;;3.70;2.60;;;;;;;19.68;51.45;97289.25;5045843;28;20320;-70
2023/05/05 09:36:10;;;;;;;6.33;3.43;;;;;;;19.56;52.46;97290.19;5047045;28;20280;-70
2023/05/05 09:38:37;;;;;;;7.37;2.97;;;;;;;19.71;52.12;97288.19;5045500;28;20207;-70
2023/05/05 09:41:05;;;;;;;8.93;3.20;;;;;;;19.59;52.27;97268.13;5047059;28;20275;-73
2023/05/05 09:43:50;;;;;;;5.73;2.70;;;;;;;19.69;51.63;97285.69;5045745;28;20223;-71
2023/05/05 09:46:17;;;;;;;7.20;2.43;;;;;;;19.71;51.35;97286.38;5045899;28;20279;-71
2023/05/05 09:48:45;;;;;;;3.10;2.27;;;;;;;19.58;51.79;97263.84;5013912;28;20209;-72
2023/05/05 09:51:12;;;;;;;4.90;3.40;;;;;;;19.59;52.05;97294.38;5046915;28;20291;-70
2023/05/05 09:53:40;;;;;;;3.87;2.77;;;;;;;19.43;51.96;97300.81;5046398;28;20229;-72
2023/05/05 09:56:07;;;;;;;6.27;3.80;;;;;;;19.35;52.44;97289.25;5046500;28;20221;-71
2023/05/05 09:58:35;;;;;;;7.10;3.30;;;;;;;19.53;52.11;97290.47;5046506;28;20212;-70
2023/05/05 10:01:02;;;;;;;6.77;2.43;;;;;;;19.65;51.22;97296.53;5045334;28;20575;-70
2023/05/05 10:03:29;;;;;;;3.70;2.47;;;;;;;19.75;50.73;97300.97;5047701;28;20204;-71
2023/05/05 10:05:58;;;;;;;4.27;3.00;;;;;;;19.27;51.96;97308.16;5046222;28;20601;-73
2023/05/05 10:08:32;;;;;;;4.40;2.50;;;;;;;19.39;51.89;97294.13;5044249;28;20224;-70
2023/05/05 10:11:05;;;;;;;2.03;1.80;;;;;;;18.88;52.67;97292.78;5047395;28;20864;-70
2023/05/05 10:13:38;;;;;;;3.63;2.40;;;;;;;18.72;51.86;97297.53;5045925;28;20224;-70
2023/05/05 10:16:08;;;;;;;2.30;2.00;;;;;;;18.44;52.59;97292.63;5047477;28;20227;-72
2023/05/05 10:18:39;;;;;;;2.47;1.90;;;;;;;18.11;52.78;97300.28;5046866;28;20291;-70
2023/05/05 10:21:24;;;;;;;3.03;2.30;;;;;;;18.01;53.55;97288.78;5046484;28;20694;-73
2023/05/05 10:24:03;;;;;;;4.63;2.17;;;;;;;17.94;53.83;97296.25;5046669;28;20267;-70
2023/05/05 10:26:34;;;;;;;3.27;1.80;;;;;;;18.02;53.76;97285.19;5065686;28;20223;-70
2023/05/05 10:29:05;;;;;;;5.33;2.50;;;;;;;18.44;52.66;97287.41;5067282;28;20194;-67
2023/05/05 10:31:35;;;;;;;2.10;1.90;;;;;;;18.38;52.01;97287.81;5066246;28;20511;-70
2023/05/05 10:34:04;;;;;;;4.67;2.37;;;;;;;18.79;51.56;97276.91;5066054;28;20732;-71
2023/05/05 10:36:32;;;;;;;2.37;2.03;;;;;;;18.93;50.84;97290.69;5067341;28;20189;-71
2023/05/05 10:39:00;;;;;;;4.10;2.90;;;;;;;19.31;49.81;97291.22;5064357;28;20291;-70
2023/05/05 10:41:30;;;;;;;2.87;2.00;;;;;;;18.90;50.18;97264.66;5066976;28;20206;-74
2023/05/05 10:43:58;;;;;;;1.93;1.77;;;;;;;18.89;50.12;97284.00;5066036;28;20191;-72
2023/05/05 10:46:28;;;;;;;2.23;1.93;;;;;;;18.81;50.45;97283.72;5066544;28;20195;-68
2023/05/05 10:49:24;;;;;;;2.97;1.80;;;;;;;18.77;50.94;97284.06;5066547;28;20191;-71
2023/05/05 10:52:04;;;;;;;2.93;2.50;;;;;;;18.60;51.44;97262.56;5065669;28;20663;-71
2023/05/05 10:54:36;;;;;;;3.60;2.57;;;;;;;18.78;51.87;97270.81;5066678;28;20345;-71
2023/05/05 10:57:09;;;;;;;3.27;2.17;;;;;;;18.69;51.82;97267.09;5064276;28;20225;-73
2023/05/05 10:59:36;;;;;;;2.17;1.97;;;;;;;18.66;51.96;97271.75;5065403;28;20209;-72
2023/05/05 11:02:28;;;;;;;2.20;1.80;;;;;;;18.77;51.40;97268.31;5066414;28;20212;-75
2023/05/05 11:05:08;;;;;;;4.03;2.43;;;;;;;18.97;50.92;97260.63;5047067;28;20760;-69
2023/05/05 11:07:36;;;;;;;3.20;1.70;;;;;;;18.73;50.17;97267.72;5066370;28;20227;-69
2023/05/05 11:10:05;;;;;;;4.00;1.87;;;;;;;18.72;49.85;97266.03;5047239;28;20192;-75
2023/05/05 11:12:53;;;;;;;2.77;2.43;;;;;;;19.20;48.85;97261.50;5066335;28;20584;-70
2023/05/05 11:15:27;;;;;;;2.13;1.73;;;;;;;19.53;47.88;97250.19;5066612;28;20642;-70
2023/05/05 11:17:56;;;;;;;1.80;1.70;;;;;;;19.42;47.47;97240.53;5063969;28;20219;-70
2023/05/05 11:20:38;;;;;;;2.10;1.90;;;;;;;19.33;48.40;97246.47;5066065;28;20199;-71
2023/05/05 11:23:05;;;;;;;3.27;1.67;;;;;;;18.83;48.20;97247.72;5057107;28;20196;-71
2023/05/05 11:25:39;;;;;;;2.43;1.57;;;;;;;18.83;50.20;97239.00;5044948;28;20250;-71
2023/05/05 11:28:16;;;;;;;2.50;1.93;;;;;;;18.85;51.08;97237.94;5045819;28;20774;-70
2023/05/05 11:30:53;;;;;;;2.60;1.90;;;;;;;19.11;51.09;97231.53;5044470;28;20200;-72
2023/05/05 11:33:27;;;;;;;3.67;1.97;;;;;;;19.48;49.86;97219.03;5046330;28;20281;-71
2023/05/05 11:35:55;;;;;;;2.17;1.77;;;;;;;19.23;50.25;97229.72;5043724;28;20258;-69
2023/05/05 11:38:54;;;;;;;4.03;2.00;;;;;;;19.49;50.71;97221.53;5046235;28;20275;-71
2023/05/05 11:41:50;;;;;;;1.97;1.77;;;;;;;19.53;49.09;97208.16;5045179;28;20184;-71
2023/05/05 11:44:19;;;;;;;3.73;2.20;;;;;;;19.71;49.62;97204.91;5044864;28;20718;-72
2023/05/05 11:46:52;;;;;;;3.97;2.00;;;;;;;19.68;48.44;97199.91;5046167;28;20189;-71
2023/05/05 11:49:30;;;;;;;3.63;2.20;;;;;;;19.41;48.72;97207.34;5046203;28;20193;-74
2023/05/05 11:51:58;;;;;;;4.47;2.27;;;;;;;19.27;49.77;97200.50;5045256;28;20202;-71